Airport View

Enter AWOS ICAO identifier for current METAR.

ex. KFNL

KBIX 112156Z AUTO 03007KT 10SM FEW070 BKN085 12/01 A3038 RMK AO2 SLP291 T01160007

11 Dec 2019 22:35

Other Area AWOS: KGPT - KPQL - KHSA - KMOB

TAF KBIX 111800Z 1118/1224 02015G25KT 9999 SCT050 BKN080 QNH3037INS BECMG 1122/1123 04009KT 9999 SCT065 BKN085 510103 QNH3033INS BECMG 1211/1212 08006KT 9999 BKN025 510103 QNH3026INS BECMG 1218/1219 08006KT 9999 VCSH BKN018 510103 QNH3019INS BECMG 1221/1222 06006KT 8000 -RA BKN015 510103 QNH3017INS TX10/1120Z TN05/1210Z